This is the latest recevied weather packets stored in our database for station/object WE1C. If no packets are shown the sender has not sent any weather packets the latest 10 day(s).
| Time | Temp. | Humidity | Pressure | Rain* | Wind** | Luminosity | Snow |
|---|---|---|---|---|---|---|---|
| 1777475519 | 12.78° C | 67% | 1044.6 hPa | 0 mm | - | 852 W/m² | - |
| 1777475215 | 12.78° C | 65% | 1044.7 hPa | 0 mm | - | 829 W/m² | - |
| 1777474911 | 12.22° C | 67% | 1044.8 hPa | 0 mm | - | 864 W/m² | - |
| 1777474607 | 12.22° C | 66% | 1044.8 hPa | 0 mm | - | 867 W/m² | - |
| 1777474304 | 11.67° C | 68% | 1044.9 hPa | 0 mm | - | 871 W/m² | - |
| 1777474000 | 12.22° C | 67% | 1044.9 hPa | 0 mm | - | 862 W/m² | - |
| 1777473698 | 12.22° C | 65% | 1045 hPa | 0 mm | - | 863 W/m² | - |
| 1777473394 | 12.22° C | 67% | 1045.2 hPa | 0 mm | - | 851 W/m² | - |
| 1777473090 | 12.22° C | 67% | 1045.3 hPa | 0 mm | - | 829 W/m² | - |
| 1777472787 | 12.22° C | 66% | 1045.4 hPa | 0 mm | - | 809 W/m² | - |
| 1777472483 | 11.67° C | 67% | 1045.3 hPa | 0 mm | - | 790 W/m² | - |
| 1777472181 | 10.56° C | 70% | 1045.7 hPa | 0 mm | - | 747 W/m² | - |
| 1777471881 | 11.11° C | 70% | 1045.7 hPa | 0 mm | - | 746 W/m² | - |
| 1777471578 | 10.56° C | 70% | 1046 hPa | 0 mm | - | 757 W/m² | - |
| 1777471275 | 10.56° C | 69% | 1045.9 hPa | 0 mm | - | 726 W/m² | - |
| 1777470971 | 10.56° C | 70% | 1045.8 hPa | 0 mm | - | 713 W/m² | - |
| 1777470669 | 11.11° C | 69% | 1046 hPa | 0 mm | - | 709 W/m² | - |
| 1777470364 | 10.56° C | 72% | 1045.8 hPa | 0 mm | - | 714 W/m² | - |
| 1777470061 | 10° C | 73% | 1045.7 hPa | 0 mm | - | 650 W/m² | - |
| 1777469757 | 10° C | 71% | 1045.7 hPa | 0 mm | - | 657 W/m² | - |
| 1777469453 | 9.44° C | 73% | 1045.9 hPa | 0 mm | - | 616 W/m² | - |
| 1777469148 | 10° C | 72% | 1046 hPa | 0 mm | - | 600 W/m² | - |
| 1777468848 | 9.44° C | 72% | 1045.9 hPa | 0 mm | - | 612 W/m² | - |
| 1777468545 | 10° C | 73% | 1045.9 hPa | 0 mm | - | 577 W/m² | - |
| 1777468241 | 9.44° C | 73% | 1046.4 hPa | 0 mm | - | 563 W/m² | - |
* Rain latest hour (hover to see other rain measurements)
** Current wind speed in m/s (hover to see current wind gust speed)